Time;durP1;ratioP1;P1;durP2;ratioP2;P2;SDS_P1;SDS_P2;PMS_P1;PMS_P2;Temp;Humidity;BMP_temperature;BMP_pressure;BME280_temperature;BME280_humidity;BME280_pressure;Samples;Min_cycle;Max_cycle;Signal;HPM_P1;HPM_P2
2022/06/10 00:02:09;;;;;;;0.00;0.00;;;;;;;;;;5057854;28;20070;-58
2022/06/10 00:04:35;;;;;;;0.00;0.00;;;;;;;;;;5057145;28;20039;-58
2022/06/10 00:07:00;;;;;;;0.00;0.00;;;;;;;;;;5058822;28;20028;-58
2022/06/10 00:09:25;;;;;;;0.00;0.00;;;;;;;;;;5057759;28;20036;-58
2022/06/10 00:11:51;;;;;;;0.00;0.00;;;;;;;;;;5062510;28;20020;-56
2022/06/10 00:14:16;;;;;;;0.00;0.00;;;;;;;;;;5060020;28;20032;-57
2022/06/10 00:16:41;;;;;;;1.65;0.65;;;;;;;;;;5059226;28;20107;-56
2022/06/10 00:19:06;;;;;;;0.00;0.00;;;;;;;;;;5056441;28;20044;-56
2022/06/10 00:21:31;;;;;;;0.00;0.00;;;;;;;;;;5055296;28;20108;-55
2022/06/10 00:23:57;;;;;;;0.00;0.00;;;;;;;;;;5060370;28;20151;-56
2022/06/10 00:26:22;;;;;;;0.00;0.00;;;;;;;;;;5056595;28;20100;-56
2022/06/10 00:28:48;;;;;;;0.00;0.00;;;;;;;;;;5063320;28;20104;-57
2022/06/10 00:31:14;;;;;;;0.00;0.00;;;;;;;;;;5061587;28;20032;-55
2022/06/10 00:33:40;;;;;;;0.00;0.00;;;;;;;;;;5059211;28;20025;-55
2022/06/10 00:36:06;;;;;;;0.00;0.00;;;;;;;;;;5060499;28;20496;-55
2022/06/10 00:38:32;;;;;;;0.00;0.00;;;;;;;;;;5058973;28;20016;-57
2022/06/10 00:40:57;;;;;;;0.00;0.00;;;;;;;;;;5055885;28;20028;-56
2022/06/10 00:43:24;;;;;;;0.57;0.57;;;;;;;;;;5053514;28;20029;-56
2022/06/10 00:45:49;;;;;;;0.00;0.00;;;;;;;;;;5057294;28;20021;-54
2022/06/10 00:48:17;;;;;;;0.00;0.00;;;;;;;;;;5062374;28;20028;-56
2022/06/10 00:50:42;;;;;;;0.00;0.00;;;;;;;;;;5057693;28;20017;-57
2022/06/10 00:59:32;;;;;;;0.00;0.00;;;;;;;;;;5008570;28;20573;-58
2022/06/10 01:02:00;;;;;;;0.00;0.00;;;;;;;;;;5008857;28;20018;-56
2022/06/10 01:04:26;;;;;;;0.85;0.85;;;;;;;;;;5010670;28;20030;-56
2022/06/10 01:06:51;;;;;;;0.00;0.00;;;;;;;;;;5010784;28;20352;-56
2022/06/10 01:09:17;;;;;;;0.10;0.10;;;;;;;;;;5012365;28;20108;-55
2022/06/10 01:12:07;;;;;;;0.00;0.00;;;;;;;;;;5011826;28;20494;-56
2022/06/10 01:14:45;;;;;;;0.00;0.00;;;;;;;;;;5011072;28;20080;-57
2022/06/10 01:17:13;;;;;;;0.00;0.00;;;;;;;;;;5009936;28;20022;-57
2022/06/10 01:20:07;;;;;;;0.00;0.00;;;;;;;;;;5012205;28;20131;-56
2022/06/10 01:22:32;;;;;;;0.00;0.00;;;;;;;;;;4998954;28;20053;-56
2022/06/10 01:25:09;;;;;;;0.17;0.17;;;;;;;;;;5011190;28;20080;-56
2022/06/10 01:27:48;;;;;;;0.00;0.00;;;;;;;;;;5009485;28;20317;-58
2022/06/10 01:30:31;;;;;;;0.00;0.00;;;;;;;;;;5009937;28;20025;-54
2022/06/10 01:33:11;;;;;;;0.00;0.00;;;;;;;;;;5009859;28;20033;-55
2022/06/10 01:35:41;;;;;;;0.00;0.00;;;;;;;;;;5009555;28;20030;-55
2022/06/10 01:38:09;;;;;;;0.00;0.00;;;;;;;;;;5011822;28;20034;-58
2022/06/10 01:40:47;;;;;;;0.00;0.00;;;;;;;;;;4991918;28;20394;-56
2022/06/10 01:43:17;;;;;;;0.00;0.00;;;;;;;;;;5009777;28;20010;-56
2022/06/10 01:45:42;;;;;;;0.00;0.00;;;;;;;;;;5008278;28;20060;-54
2022/06/10 01:48:17;;;;;;;1.45;1.35;;;;;;;;;;5009768;28;20804;-58
2022/06/10 01:50:49;;;;;;;0.00;0.00;;;;;;;;;;5008327;28;20041;-53
2022/06/10 01:53:27;;;;;;;0.00;0.00;;;;;;;;;;4991270;28;20352;-54
2022/06/10 01:55:58;;;;;;;0.00;0.00;;;;;;;;;;5008376;28;20030;-55
2022/06/10 01:58:26;;;;;;;0.00;0.00;;;;;;;;;;5016786;28;20376;-56
2022/06/10 02:00:54;;;;;;;0.00;0.00;;;;;;;;;;5027403;28;20028;-56
2022/06/10 02:03:28;;;;;;;0.00;0.00;;;;;;;;;;5027728;28;20112;-56
2022/06/10 02:05:56;;;;;;;1.95;1.85;;;;;;;;;;5026692;28;20018;-55
2022/06/10 02:08:27;;;;;;;0.10;0.10;;;;;;;;;;5028489;28;20025;-55
2022/06/10 02:11:09;;;;;;;0.05;0.05;;;;;;;;;;5027321;28;20024;-56
2022/06/10 02:13:41;;;;;;;0.00;0.00;;;;;;;;;;5028598;28;20441;-56
2022/06/10 02:16:09;;;;;;;0.00;0.00;;;;;;;;;;5027424;28;20087;-56
2022/06/10 02:18:40;;;;;;;0.00;0.00;;;;;;;;;;5027857;28;20023;-56
2022/06/10 02:21:07;;;;;;;0.60;0.52;;;;;;;;;;5028024;28;20030;-56
2022/06/10 02:23:37;;;;;;;0.00;0.00;;;;;;;;;;5026493;28;20013;-55
2022/06/10 02:26:03;;;;;;;0.00;0.00;;;;;;;;;;5026700;28;20156;-54
2022/06/10 02:28:38;;;;;;;0.00;0.00;;;;;;;;;;5027611;28;22526;-57
2022/06/10 02:31:08;;;;;;;0.00;0.00;;;;;;;;;;5027210;28;20049;-54
2022/06/10 02:33:34;;;;;;;0.00;0.00;;;;;;;;;;5027320;28;20045;-57
2022/06/10 02:36:17;;;;;;;0.00;0.00;;;;;;;;;;5027472;28;20119;-55
2022/06/10 02:38:45;;;;;;;0.00;0.00;;;;;;;;;;5026282;28;20354;-54
2022/06/10 02:41:16;;;;;;;0.00;0.00;;;;;;;;;;5027025;28;20332;-54
2022/06/10 02:43:52;;;;;;;0.25;0.25;;;;;;;;;;5026719;28;20029;-53
2022/06/10 02:46:36;;;;;;;0.00;0.00;;;;;;;;;;5026411;28;20131;-55
2022/06/10 02:49:01;;;;;;;0.00;0.00;;;;;;;;;;5026903;28;20479;-55
2022/06/10 02:51:27;;;;;;;0.00;0.00;;;;;;;;;;5027931;28;20024;-55
2022/06/10 02:53:52;;;;;;;0.52;0.52;;;;;;;;;;5026935;28;20048;-55
2022/06/10 02:56:19;;;;;;;11.00;1.95;;;;;;;;;;5027162;28;20030;-53
2022/06/10 03:01:35;;;;;;;0.10;0.10;;;;;;;;;;5028551;28;20032;-58
2022/06/10 03:04:07;;;;;;;0.00;0.00;;;;;;;;;;5028391;28;20029;-58
2022/06/10 03:06:38;;;;;;;0.00;0.00;;;;;;;;;;5027204;28;20391;-54
2022/06/10 03:09:18;;;;;;;0.00;0.00;;;;;;;;;;5028831;28;20021;-54
2022/06/10 03:11:52;;;;;;;0.00;0.00;;;;;;;;;;5028033;28;20658;-56
2022/06/10 03:14:26;;;;;;;0.00;0.00;;;;;;;;;;5028337;28;20045;-54
2022/06/10 03:17:10;;;;;;;0.00;0.00;;;;;;;;;;5031548;28;20071;-55
2022/06/10 03:19:35;;;;;;;0.00;0.00;;;;;;;;;;5031136;28;20056;-56
2022/06/10 03:22:00;;;;;;;0.00;0.00;;;;;;;;;;5030909;28;20049;-49
2022/06/10 03:24:31;;;;;;;0.00;0.00;;;;;;;;;;5031315;28;20372;-55
2022/06/10 03:27:05;;;;;;;0.00;0.00;;;;;;;;;;5030160;28;20330;-54
2022/06/10 03:29:41;;;;;;;0.00;0.00;;;;;;;;;;5031376;28;20029;-55
2022/06/10 03:32:26;;;;;;;0.00;0.00;;;;;;;;;;5030859;28;20029;-52
2022/06/10 03:34:54;;;;;;;0.00;0.00;;;;;;;;;;5030928;28;20424;-53
2022/06/10 03:37:22;;;;;;;0.00;0.00;;;;;;;;;;5029792;28;20061;-53
2022/06/10 03:39:54;;;;;;;0.00;0.00;;;;;;;;;;5031026;28;20049;-55
2022/06/10 03:42:20;;;;;;;0.63;0.63;;;;;;;;;;5031520;28;20034;-56
2022/06/10 03:44:47;;;;;;;0.00;0.00;;;;;;;;;;5030784;28;20048;-56
2022/06/10 03:47:18;;;;;;;0.00;0.00;;;;;;;;;;5031177;28;20498;-55
2022/06/10 03:49:49;;;;;;;0.00;0.00;;;;;;;;;;5030749;28;20025;-52
2022/06/10 03:52:22;;;;;;;0.00;0.00;;;;;;;;;;5030850;28;20034;-54
2022/06/10 03:54:47;;;;;;;0.00;0.00;;;;;;;;;;5030366;28;20021;-52
2022/06/10 03:57:13;;;;;;;1.45;1.35;;;;;;;;;;5030771;28;20033;-54
2022/06/10 03:59:39;;;;;;;0.00;0.00;;;;;;;;;;5011976;28;20128;-55
2022/06/10 04:02:04;;;;;;;4.05;2.10;;;;;;;;;;5011214;28;20018;-56
2022/06/10 04:04:29;;;;;;;0.05;0.05;;;;;;;;;;5011325;28;20017;-54
2022/06/10 04:06:55;;;;;;;0.00;0.00;;;;;;;;;;5010370;28;20048;-54
2022/06/10 04:09:20;;;;;;;0.00;0.00;;;;;;;;;;5011384;28;20079;-57
2022/06/10 04:11:45;;;;;;;0.00;0.00;;;;;;;;;;5010973;28;20020;-52
2022/06/10 04:14:10;;;;;;;0.00;0.00;;;;;;;;;;5011312;28;20026;-53
2022/06/10 04:16:36;;;;;;;0.00;0.00;;;;;;;;;;5009470;28;20036;-57
2022/06/10 04:19:01;;;;;;;0.00;0.00;;;;;;;;;;5011115;28;20026;-56
2022/06/10 04:21:26;;;;;;;0.00;0.00;;;;;;;;;;5010477;28;20080;-52
2022/06/10 04:23:51;;;;;;;0.00;0.00;;;;;;;;;;5010666;28;20056;-55
2022/06/10 04:26:17;;;;;;;0.00;0.00;;;;;;;;;;5010012;28;20022;-56
2022/06/10 04:28:42;;;;;;;1.55;1.45;;;;;;;;;;5010177;28;20112;-54
2022/06/10 04:31:07;;;;;;;0.00;0.00;;;;;;;;;;5012097;28;20025;-56
2022/06/10 04:33:34;;;;;;;0.00;0.00;;;;;;;;;;5010463;28;20108;-56
2022/06/10 04:35:59;;;;;;;0.00;0.00;;;;;;;;;;5009362;28;20525;-53
2022/06/10 04:38:25;;;;;;;0.00;0.00;;;;;;;;;;5010042;28;20049;-52
2022/06/10 04:40:50;;;;;;;0.00;0.00;;;;;;;;;;5009906;28;20044;-55
2022/06/10 04:43:16;;;;;;;0.00;0.00;;;;;;;;;;5010102;28;20010;-55
2022/06/10 04:45:44;;;;;;;0.00;0.00;;;;;;;;;;5010062;28;20018;-56
2022/06/10 04:48:11;;;;;;;0.00;0.00;;;;;;;;;;5009612;28;20037;-56
2022/06/10 04:50:36;;;;;;;0.00;0.00;;;;;;;;;;5011146;28;20033;-55
2022/06/10 04:53:02;;;;;;;0.00;0.00;;;;;;;;;;5010545;28;20383;-53
2022/06/10 04:55:27;;;;;;;0.00;0.00;;;;;;;;;;5011003;28;20021;-57
2022/06/10 04:57:54;;;;;;;0.20;0.20;;;;;;;;;;5014329;28;20406;-55
2022/06/10 05:00:30;;;;;;;0.15;0.15;;;;;;;;;;5030619;28;20033;-53
2022/06/10 05:02:55;;;;;;;0.00;0.00;;;;;;;;;;5031315;28;20029;-55
2022/06/10 05:05:21;;;;;;;0.00;0.00;;;;;;;;;;5030397;28;20021;-54
2022/06/10 05:07:46;;;;;;;0.00;0.00;;;;;;;;;;5028852;28;20025;-54
2022/06/10 05:10:15;;;;;;;0.00;0.00;;;;;;;;;;5029388;28;20019;-54
2022/06/10 05:12:40;;;;;;;0.00;0.00;;;;;;;;;;5029930;28;20120;-56
2022/06/10 05:15:06;;;;;;;0.05;0.05;;;;;;;;;;5029450;28;20100;-54
2022/06/10 05:17:31;;;;;;;0.00;0.00;;;;;;;;;;5027833;28;20033;-56
2022/06/10 05:19:56;;;;;;;0.10;0.10;;;;;;;;;;5028846;28;20231;-55
2022/06/10 05:22:22;;;;;;;0.00;0.00;;;;;;;;;;5029133;28;20021;-55
2022/06/10 05:24:47;;;;;;;0.00;0.00;;;;;;;;;;5029591;28;20343;-55
2022/06/10 05:27:13;;;;;;;0.17;0.17;;;;;;;;;;5028894;28;20053;-55
2022/06/10 05:29:38;;;;;;;0.70;0.70;;;;;;;;;;5029098;28;20025;-57
2022/06/10 05:32:04;;;;;;;4.25;3.85;;;;;;;;;;5026615;28;20032;-55
2022/06/10 05:34:44;;;;;;;0.00;0.00;;;;;;;;;;5029200;28;20079;-55
2022/06/10 05:37:12;;;;;;;0.17;0.17;;;;;;;;;;5027767;28;20394;-57
2022/06/10 05:39:37;;;;;;;0.00;0.00;;;;;;;;;;5028457;28;20072;-56
2022/06/10 05:42:06;;;;;;;0.00;0.00;;;;;;;;;;5027981;28;20039;-57
2022/06/10 05:44:35;;;;;;;0.00;0.00;;;;;;;;;;5028461;28;20021;-55
2022/06/10 05:47:00;;;;;;;;;;;;;;;;;;5025943;28;20021;-58
2022/06/10 05:49:26;;;;;;;0.00;0.00;;;;;;;;;;5028576;28;19913;-58
2022/06/10 05:51:51;;;;;;;0.00;0.00;;;;;;;;;;5028020;28;20271;-58
2022/06/10 05:54:17;;;;;;;0.00;0.00;;;;;;;;;;5025463;28;20759;-56
2022/06/10 05:56:45;;;;;;;0.00;0.00;;;;;;;;;;5027703;28;20070;-55
2022/06/10 05:59:11;;;;;;;0.00;0.00;;;;;;;;;;5028536;28;20124;-55
2022/06/10 06:01:37;;;;;;;5.20;1.02;;;;;;;;;;5029400;28;20025;-56
2022/06/10 06:04:02;;;;;;;0.00;0.00;;;;;;;;;;5028450;28;20079;-57
2022/06/10 06:06:29;;;;;;;0.00;0.00;;;;;;;;;;5027070;28;20402;-56
2022/06/10 06:08:54;;;;;;;0.00;0.00;;;;;;;;;;5028891;28;20163;-56
2022/06/10 06:11:19;;;;;;;0.00;0.00;;;;;;;;;;5029155;28;20119;-57
2022/06/10 06:13:45;;;;;;;0.10;0.10;;;;;;;;;;5028512;28;20463;-57
2022/06/10 06:16:14;;;;;;;0.00;0.00;;;;;;;;;;5029233;28;20120;-57
2022/06/10 06:18:40;;;;;;;3.00;0.52;;;;;;;;;;5029214;28;20386;-58
2022/06/10 06:21:06;;;;;;;1.27;1.27;;;;;;;;;;5030224;28;20037;-58
2022/06/10 06:23:31;;;;;;;0.03;0.03;;;;;;;;;;5028447;28;20021;-58
2022/06/10 06:25:56;;;;;;;2.53;1.50;;;;;;;;;;5029969;28;20021;-57
2022/06/10 06:28:21;;;;;;;0.30;0.30;;;;;;;;;;5028245;28;20041;-58
2022/06/10 06:30:47;;;;;;;0.60;0.60;;;;;;;;;;5029209;28;20025;-57
2022/06/10 06:33:12;;;;;;;0.00;0.00;;;;;;;;;;5032161;28;20096;-56
2022/06/10 06:35:38;;;;;;;0.00;0.00;;;;;;;;;;5029616;28;20017;-57
2022/06/10 06:38:04;;;;;;;0.00;0.00;;;;;;;;;;5030415;28;20355;-57
2022/06/10 06:40:29;;;;;;;0.00;0.00;;;;;;;;;;5030045;28;20091;-59
2022/06/10 06:42:55;;;;;;;0.17;0.17;;;;;;;;;;5029811;28;20017;-58
2022/06/10 06:45:21;;;;;;;0.57;0.57;;;;;;;;;;5029752;28;20030;-57
2022/06/10 06:47:47;;;;;;;0.00;0.00;;;;;;;;;;5028082;28;20405;-57
2022/06/10 06:50:14;;;;;;;0.15;0.15;;;;;;;;;;5033759;28;20021;-57
2022/06/10 06:52:40;;;;;;;0.00;0.00;;;;;;;;;;5032979;28;20021;-57
2022/06/10 06:55:06;;;;;;;11.15;2.65;;;;;;;;;;5032718;28;20478;-58
2022/06/10 06:57:31;;;;;;;0.00;0.00;;;;;;;;;;5032594;28;20010;-57
2022/06/10 07:00:06;;;;;;;0.00;0.00;;;;;;;;;;5033396;28;20108;-57
2022/06/10 07:02:35;;;;;;;0.20;0.20;;;;;;;;;;5032407;28;20096;-58
2022/06/10 07:05:00;;;;;;;0.00;0.00;;;;;;;;;;5034619;28;20029;-58
2022/06/10 07:07:26;;;;;;;0.00;0.00;;;;;;;;;;5032311;28;20106;-58
2022/06/10 07:09:51;;;;;;;0.00;0.00;;;;;;;;;;5029901;28;20017;-57
2022/06/10 07:12:16;;;;;;;36.83;6.82;;;;;;;;;;5031302;28;20025;-57
2022/06/10 07:14:42;;;;;;;0.00;0.00;;;;;;;;;;5032253;28;20018;-57
2022/06/10 07:17:07;;;;;;;0.00;0.00;;;;;;;;;;5029270;28;20021;-59
2022/06/10 07:19:32;;;;;;;0.00;0.00;;;;;;;;;;5032824;28;20011;-56
2022/06/10 07:21:58;;;;;;;0.00;0.00;;;;;;;;;;5031786;28;20026;-58
2022/06/10 07:24:23;;;;;;;0.00;0.00;;;;;;;;;;5031552;28;20108;-58
2022/06/10 07:26:48;;;;;;;0.00;0.00;;;;;;;;;;5013012;28;20029;-58
2022/06/10 07:29:14;;;;;;;0.00;0.00;;;;;;;;;;5032449;28;20080;-58
2022/06/10 07:31:41;;;;;;;0.00;0.00;;;;;;;;;;5031729;28;20037;-57
2022/06/10 07:34:07;;;;;;;0.00;0.00;;;;;;;;;;5031724;28;20017;-58
2022/06/10 07:36:32;;;;;;;0.00;0.00;;;;;;;;;;5030032;28;20422;-58
2022/06/10 07:38:57;;;;;;;0.00;0.00;;;;;;;;;;5031436;28;21422;-58
2022/06/10 07:44:06;;;;;;;0.00;0.00;;;;;;;;;;5033486;28;20248;-55
2022/06/10 07:46:31;;;;;;;0.13;0.13;;;;;;;;;;5032687;28;20451;-58
2022/06/10 07:48:57;;;;;;;0.00;0.00;;;;;;;;;;5031121;28;20039;-57
2022/06/10 07:51:23;;;;;;;0.00;0.00;;;;;;;;;;5032076;28;20030;-58
2022/06/10 07:53:48;;;;;;;0.00;0.00;;;;;;;;;;5034103;28;20279;-60
2022/06/10 07:56:15;;;;;;;0.00;0.00;;;;;;;;;;5034418;28;20017;-57
2022/06/10 07:58:41;;;;;;;0.00;0.00;;;;;;;;;;5035860;28;20077;-60
2022/06/10 08:01:06;;;;;;;0.00;0.00;;;;;;;;;;5032225;28;20029;-59
2022/06/10 08:03:32;;;;;;;0.00;0.00;;;;;;;;;;5033141;28;20018;-59
2022/06/10 08:05:58;;;;;;;0.00;0.00;;;;;;;;;;5032495;28;20017;-59
2022/06/10 08:08:24;;;;;;;0.00;0.00;;;;;;;;;;5032877;28;20100;-60
2022/06/10 08:10:49;;;;;;;0.00;0.00;;;;;;;;;;5032679;28;20427;-56
2022/06/10 08:13:15;;;;;;;0.85;0.85;;;;;;;;;;5031503;28;20032;-59
2022/06/10 08:15:41;;;;;;;0.00;0.00;;;;;;;;;;5032836;28;20039;-58
2022/06/10 08:18:06;;;;;;;0.00;0.00;;;;;;;;;;5030027;28;20255;-59
2022/06/10 08:23:17;;;;;;;0.10;0.10;;;;;;;;;;5031246;28;20023;-58
2022/06/10 08:25:43;;;;;;;0.10;0.10;;;;;;;;;;5031107;28;20017;-58
2022/06/10 08:28:09;;;;;;;0.00;0.00;;;;;;;;;;5030414;28;20474;-58
2022/06/10 08:30:34;;;;;;;1.65;1.08;;;;;;;;;;5030738;28;20354;-59
2022/06/10 08:33:03;;;;;;;0.00;0.00;;;;;;;;;;5030062;28;20467;-58
2022/06/10 08:35:28;;;;;;;1.13;1.13;;;;;;;;;;5031069;28;20032;-57
2022/06/10 08:37:53;;;;;;;0.00;0.00;;;;;;;;;;5028916;28;20114;-59
2022/06/10 08:40:26;;;;;;;0.00;0.00;;;;;;;;;;5029632;28;20720;-58
2022/06/10 08:42:54;;;;;;;0.00;0.00;;;;;;;;;;5029801;28;20045;-56
2022/06/10 08:45:28;;;;;;;0.63;0.63;;;;;;;;;;5030318;28;20227;-57
2022/06/10 08:48:12;;;;;;;0.57;0.57;;;;;;;;;;5027973;28;20036;-55
2022/06/10 08:50:43;;;;;;;0.90;0.90;;;;;;;;;;5028775;28;20030;-58
2022/06/10 08:53:27;;;;;;;0.00;0.00;;;;;;;;;;5027759;28;20078;-57
2022/06/10 08:56:05;;;;;;;0.10;0.10;;;;;;;;;;5027954;28;20033;-58
2022/06/10 08:58:33;;;;;;;0.00;0.00;;;;;;;;;;5027409;28;20053;-57
2022/06/10 09:01:00;;;;;;;0.00;0.00;;;;;;;;;;5029578;28;20032;-57
2022/06/10 09:03:32;;;;;;;0.00;0.00;;;;;;;;;;5030160;28;20071;-58
2022/06/10 09:06:00;;;;;;;5.93;1.02;;;;;;;;;;5027101;28;20021;-57
2022/06/10 09:08:34;;;;;;;0.47;0.47;;;;;;;;;;5026340;28;20036;-58
2022/06/10 09:11:18;;;;;;;0.00;0.00;;;;;;;;;;5029393;28;20072;-58
2022/06/10 09:13:52;;;;;;;0.28;0.28;;;;;;;;;;5026484;28;20026;-56
2022/06/10 09:16:50;;;;;;;0.17;0.17;;;;;;;;;;5027761;28;20507;-57
2022/06/10 09:19:15;;;;;;;0.00;0.00;;;;;;;;;;4981631;28;20398;-58
2022/06/10 09:21:41;;;;;;;0.10;0.10;;;;;;;;;;5029586;28;20021;-58
2022/06/10 09:24:26;;;;;;;0.65;0.65;;;;;;;;;;5033277;28;20021;-57
2022/06/10 09:27:02;;;;;;;8.65;0.65;;;;;;;;;;5031526;28;20033;-57
2022/06/10 09:29:27;;;;;;;2.17;1.65;;;;;;;;;;5028858;28;20087;-57
2022/06/10 09:32:05;;;;;;;0.00;0.00;;;;;;;;;;5031201;28;20029;-57
2022/06/10 09:34:40;;;;;;;0.00;0.00;;;;;;;;;;5030501;28;20419;-57
2022/06/10 09:37:14;;;;;;;0.03;0.00;;;;;;;;;;5029296;28;20116;-57
2022/06/10 09:42:53;;;;;;;0.00;0.00;;;;;;;;;;5029496;28;20402;-57
2022/06/10 09:45:23;;;;;;;2.92;0.63;;;;;;;;;;5026584;28;20746;-57
2022/06/10 09:48:07;;;;;;;0.00;0.00;;;;;;;;;;5028194;28;20482;-57
2022/06/10 09:50:36;;;;;;;0.00;0.00;;;;;;;;;;5030176;28;20020;-57
2022/06/10 09:53:10;;;;;;;0.00;0.00;;;;;;;;;;5025719;28;20022;-57
2022/06/10 09:55:39;;;;;;;6.93;0.88;;;;;;;;;;5029458;28;20017;-58
2022/06/10 09:58:18;;;;;;;0.00;0.00;;;;;;;;;;5008087;28;20053;-57
2022/06/10 10:00:52;;;;;;;0.55;0.55;;;;;;;;;;5023148;28;20022;-57
2022/06/10 10:03:36;;;;;;;0.00;0.00;;;;;;;;;;5028128;28;20013;-58
2022/06/10 10:06:04;;;;;;;1.08;1.08;;;;;;;;;;5026653;28;20096;-57
2022/06/10 10:08:36;;;;;;;0.00;0.00;;;;;;;;;;5024136;28;20034;-57
2022/06/10 10:11:18;;;;;;;0.00;0.00;;;;;;;;;;5024414;28;20049;-58
2022/06/10 10:13:51;;;;;;;0.20;0.20;;;;;;;;;;5028957;28;20037;-54
2022/06/10 10:16:23;;;;;;;0.00;0.00;;;;;;;;;;5014197;28;20026;-56
2022/06/10 10:18:54;;;;;;;0.00;0.00;;;;;;;;;;5026893;28;20025;-57
2022/06/10 10:21:19;;;;;;;0.80;0.80;;;;;;;;;;5024470;28;20026;-56
2022/06/10 10:23:46;;;;;;;0.53;0.53;;;;;;;;;;5029964;28;20100;-57
2022/06/10 10:26:14;;;;;;;0.00;0.00;;;;;;;;;;5032790;28;20252;-57
2022/06/10 10:28:42;;;;;;;0.00;0.00;;;;;;;;;;5032763;28;20056;-58
2022/06/10 10:31:10;;;;;;;0.13;0.13;;;;;;;;;;5032125;28;20022;-56
2022/06/10 10:33:37;;;;;;;0.00;0.00;;;;;;;;;;5033411;28;20053;-57
2022/06/10 10:36:05;;;;;;;0.45;0.45;;;;;;;;;;5032076;28;20067;-56
2022/06/10 10:38:36;;;;;;;0.00;0.00;;;;;;;;;;5031995;28;20017;-57
2022/06/10 10:41:13;;;;;;;0.03;0.03;;;;;;;;;;5034896;28;20024;-56
2022/06/10 10:43:39;;;;;;;0.40;0.40;;;;;;;;;;5033350;28;20018;-56
2022/06/10 10:46:24;;;;;;;0.20;0.20;;;;;;;;;;5033805;28;20021;-57
2022/06/10 10:48:50;;;;;;;0.00;0.00;;;;;;;;;;5033083;28;20029;-57
2022/06/10 10:51:19;;;;;;;0.00;0.00;;;;;;;;;;5037225;28;20028;-56
2022/06/10 10:53:44;;;;;;;0.00;0.00;;;;;;;;;;5034286;28;20574;-57
2022/06/10 10:56:11;;;;;;;0.00;0.00;;;;;;;;;;5034293;28;20023;-56
2022/06/10 10:58:38;;;;;;;0.00;0.00;;;;;;;;;;5032767;28;20541;-58
2022/06/10 11:01:04;;;;;;;5.68;2.08;;;;;;;;;;5032857;28;20036;-56
2022/06/10 11:03:31;;;;;;;0.00;0.00;;;;;;;;;;5034352;28;20112;-56
2022/06/10 11:05:58;;;;;;;2.05;1.20;;;;;;;;;;5033168;28;20021;-57
2022/06/10 11:08:23;;;;;;;0.10;0.10;;;;;;;;;;5032716;28;20162;-58
2022/06/10 11:10:51;;;;;;;0.00;0.00;;;;;;;;;;5031685;28;20045;-58
2022/06/10 11:13:19;;;;;;;0.00;0.00;;;;;;;;;;5030527;28;20385;-57
2022/06/10 11:15:46;;;;;;;15.60;2.15;;;;;;;;;;5031453;28;20095;-57
2022/06/10 11:18:12;;;;;;;0.00;0.00;;;;;;;;;;5030716;28;20029;-58
2022/06/10 11:20:38;;;;;;;0.00;0.00;;;;;;;;;;5012384;28;20025;-58
2022/06/10 11:23:10;;;;;;;0.00;0.00;;;;;;;;;;5029441;28;20025;-57
2022/06/10 11:25:35;;;;;;;0.00;0.00;;;;;;;;;;5033086;28;20026;-57
2022/06/10 11:28:03;;;;;;;0.00;0.00;;;;;;;;;;5033817;28;20112;-57
2022/06/10 11:30:36;;;;;;;0.00;0.00;;;;;;;;;;5031510;28;20030;-56
2022/06/10 11:33:05;;;;;;;0.00;0.00;;;;;;;;;;5030877;28;20478;-58
2022/06/10 11:35:31;;;;;;;0.00;0.00;;;;;;;;;;5031365;28;20033;-58
2022/06/10 11:38:09;;;;;;;0.00;0.00;;;;;;;;;;5027393;28;20052;-57
2022/06/10 11:40:34;;;;;;;0.00;0.00;;;;;;;;;;5030182;28;20029;-57
2022/06/10 11:43:02;;;;;;;0.00;0.00;;;;;;;;;;5029521;28;20471;-57
2022/06/10 11:45:31;;;;;;;0.00;0.00;;;;;;;;;;5028231;28;20026;-56
2022/06/10 11:48:11;;;;;;;0.00;0.00;;;;;;;;;;5025630;28;20096;-57
2022/06/10 11:50:46;;;;;;;0.00;0.00;;;;;;;;;;5027957;28;20037;-57
2022/06/10 11:53:17;;;;;;;0.00;0.00;;;;;;;;;;5028238;28;20041;-57
2022/06/10 11:55:44;;;;;;;0.00;0.00;;;;;;;;;;5029168;28;20487;-59
2022/06/10 12:00:53;;;;;;;0.00;0.00;;;;;;;;;;5026097;28;20037;-60
2022/06/10 12:03:36;;;;;;;0.00;0.00;;;;;;;;;;5029835;28;20030;-57
2022/06/10 12:06:01;;;;;;;0.10;0.10;;;;;;;;;;5030093;28;20387;-58
2022/06/10 12:08:45;;;;;;;0.00;0.00;;;;;;;;;;5030020;28;20029;-56
2022/06/10 12:11:10;;;;;;;0.10;0.10;;;;;;;;;;5029346;28;20132;-55
2022/06/10 12:13:38;;;;;;;0.00;0.00;;;;;;;;;;5028589;28;20056;-58
2022/06/10 12:16:04;;;;;;;0.03;0.03;;;;;;;;;;5010193;28;20478;-58
2022/06/10 12:18:32;;;;;;;0.00;0.00;;;;;;;;;;5026913;28;20048;-59
2022/06/10 12:20:59;;;;;;;0.00;0.00;;;;;;;;;;5028713;28;20378;-58
2022/06/10 12:23:26;;;;;;;0.57;0.57;;;;;;;;;;5026437;28;20021;-58
2022/06/10 12:26:02;;;;;;;0.00;0.00;;;;;;;;;;5027278;28;20021;-56
2022/06/10 12:28:31;;;;;;;0.00;0.00;;;;;;;;;;5028054;28;20032;-57
2022/06/10 12:31:00;;;;;;;0.00;0.00;;;;;;;;;;5026857;28;20108;-57
2022/06/10 12:33:52;;;;;;;0.20;0.20;;;;;;;;;;5025217;28;20049;-58
2022/06/10 12:36:24;;;;;;;0.00;0.00;;;;;;;;;;4988058;28;20091;-58
2022/06/10 12:38:51;;;;;;;0.00;0.00;;;;;;;;;;5026350;28;20022;-57
2022/06/10 12:41:21;;;;;;;0.00;0.00;;;;;;;;;;5027768;28;20017;-57
2022/06/10 12:43:49;;;;;;;0.17;0.17;;;;;;;;;;5026487;28;20022;-57
2022/06/10 12:46:33;;;;;;;0.00;0.00;;;;;;;;;;5027874;28;20029;-56
2022/06/10 12:49:05;;;;;;;0.60;0.60;;;;;;;;;;5026867;28;20021;-58
2022/06/10 12:51:37;;;;;;;1.15;1.13;;;;;;;;;;5026290;28;20021;-57
2022/06/10 12:54:20;;;;;;;0.00;0.00;;;;;;;;;;5027035;28;20034;-58
2022/06/10 12:56:46;;;;;;;0.20;0.20;;;;;;;;;;5024816;28;20466;-57
2022/06/10 12:59:21;;;;;;;0.30;0.30;;;;;;;;;;5026939;28;20049;-59
2022/06/10 13:01:47;;;;;;;0.00;0.00;;;;;;;;;;5026164;28;20028;-58
2022/06/10 13:04:35;;;;;;;0.00;0.00;;;;;;;;;;5029453;28;20105;-58
2022/06/10 13:07:02;;;;;;;0.00;0.00;;;;;;;;;;5026883;28;20053;-57
2022/06/10 13:09:34;;;;;;;0.00;0.00;;;;;;;;;;5028348;28;20033;-58
2022/06/10 13:12:06;;;;;;;0.32;0.32;;;;;;;;;;5027632;28;20447;-57
2022/06/10 13:14:34;;;;;;;0.00;0.00;;;;;;;;;;5026595;28;20501;-57
2022/06/10 13:16:59;;;;;;;0.00;0.00;;;;;;;;;;5024630;28;20022;-58
2022/06/10 13:19:27;;;;;;;0.10;0.10;;;;;;;;;;5028465;28;20032;-58
2022/06/10 13:21:52;;;;;;;0.70;0.70;;;;;;;;;;5027516;28;20870;-57
2022/06/10 13:24:19;;;;;;;0.88;0.80;;;;;;;;;;5026583;28;20040;-58
2022/06/10 13:26:44;;;;;;;0.10;0.10;;;;;;;;;;5024696;28;20087;-57
2022/06/10 13:29:17;;;;;;;1.38;1.08;;;;;;;;;;5027919;28;20021;-57
2022/06/10 13:31:47;;;;;;;2.65;0.43;;;;;;;;;;5023746;28;20057;-57
2022/06/10 13:34:18;;;;;;;2.55;0.65;;;;;;;;;;5027575;28;20043;-57
2022/06/10 13:36:48;;;;;;;0.00;0.00;;;;;;;;;;5027126;28;20025;-57
2022/06/10 13:39:13;;;;;;;;;;;;;;;;;;5028816;28;20095;-59
2022/06/10 13:41:54;;;;;;;0.00;0.00;;;;;;;;;;5018920;28;19909;-58
2022/06/10 13:44:28;;;;;;;14.35;1.15;;;;;;;;;;5028809;28;20492;-58
2022/06/10 13:46:54;;;;;;;0.00;0.00;;;;;;;;;;5027711;28;20025;-58
2022/06/10 13:49:42;;;;;;;4.20;1.58;;;;;;;;;;5027593;28;20057;-58
2022/06/10 13:52:15;;;;;;;1.38;1.00;;;;;;;;;;5025627;28;20040;-59
2022/06/10 13:54:40;;;;;;;1.55;0.60;;;;;;;;;;5022955;28;20025;-57
2022/06/10 13:57:26;;;;;;;0.00;0.00;;;;;;;;;;5024486;28;20078;-58
2022/06/10 14:00:05;;;;;;;0.00;0.00;;;;;;;;;;5024579;28;20048;-58
2022/06/10 14:02:32;;;;;;;0.63;0.00;;;;;;;;;;5025306;28;20108;-59
2022/06/10 14:05:01;;;;;;;0.00;0.00;;;;;;;;;;5025622;28;20044;-58
2022/06/10 14:07:27;;;;;;;0.00;0.00;;;;;;;;;;5026429;28;20063;-58
2022/06/10 14:09:53;;;;;;;0.00;0.00;;;;;;;;;;5025977;28;20124;-59
2022/06/10 14:12:20;;;;;;;5.15;0.28;;;;;;;;;;5025860;28;20846;-60
2022/06/10 14:14:47;;;;;;;0.10;0.10;;;;;;;;;;5008449;28;20032;-59
2022/06/10 14:17:15;;;;;;;0.00;0.00;;;;;;;;;;5026619;28;20486;-59
2022/06/10 14:19:43;;;;;;;1.65;1.55;;;;;;;;;;5027109;28;20386;-58
2022/06/10 14:22:15;;;;;;;0.00;0.00;;;;;;;;;;5027145;28;20035;-58
2022/06/10 14:24:40;;;;;;;24.65;1.67;;;;;;;;;;5026835;28;20032;-58
2022/06/10 14:27:11;;;;;;;0.28;0.28;;;;;;;;;;5026713;28;20029;-58
2022/06/10 14:29:37;;;;;;;0.10;0.03;;;;;;;;;;5027674;28;20366;-58
2022/06/10 14:32:04;;;;;;;0.00;0.00;;;;;;;;;;5026288;28;20030;-60
2022/06/10 14:34:29;;;;;;;0.00;0.00;;;;;;;;;;5027566;28;20029;-59
2022/06/10 14:36:59;;;;;;;0.00;0.00;;;;;;;;;;5009347;28;20336;-59
2022/06/10 14:39:26;;;;;;;0.00;0.00;;;;;;;;;;5027502;28;20036;-60
2022/06/10 14:42:00;;;;;;;0.00;0.00;;;;;;;;;;5027955;28;20022;-59
2022/06/10 14:44:30;;;;;;;0.68;0.68;;;;;;;;;;5025353;28;20036;-60
2022/06/10 14:47:04;;;;;;;0.00;0.00;;;;;;;;;;5026361;28;20491;-59
2022/06/10 14:49:49;;;;;;;0.00;0.00;;;;;;;;;;5026163;28;20052;-59
2022/06/10 14:52:33;;;;;;;0.00;0.00;;;;;;;;;;5007093;28;20367;-60
2022/06/10 14:55:00;;;;;;;0.00;0.00;;;;;;;;;;5027390;28;20037;-60
2022/06/10 14:57:27;;;;;;;0.00;0.00;;;;;;;;;;5028911;28;20037;-61
2022/06/10 14:59:52;;;;;;;0.00;0.00;;;;;;;;;;5027514;28;20026;-60
2022/06/10 15:02:18;;;;;;;0.00;0.00;;;;;;;;;;5027277;28;20026;-59
2022/06/10 15:07:27;;;;;;;0.00;0.00;;;;;;;;;;5028851;28;20052;-61
2022/06/10 15:09:53;;;;;;;0.00;0.00;;;;;;;;;;5030557;28;20474;-59
2022/06/10 15:12:29;;;;;;;0.00;0.00;;;;;;;;;;5032180;28;20037;-58
2022/06/10 15:14:55;;;;;;;0.00;0.00;;;;;;;;;;5031329;28;20022;-60
2022/06/10 15:17:23;;;;;;;0.00;0.00;;;;;;;;;;5033830;28;20035;-59
2022/06/10 15:19:48;;;;;;;0.00;0.00;;;;;;;;;;5028482;28;20146;-59